KCEU/CEU METAR and TAF weather

Enter ICAO airport designator
Station Type Date Time Source
KCEU METAR 2022/07/03 14:54 UTC NOAA

KCEU 031454Z AUTO 00000KT 10SM CLR 29/22 A3010 RMK AO2 SLP181 T02890222 51007


Station Type Date Time Source
KCEU Decoded METAR 2022/07/03 14:54 UTC NOAA

CLEMSON-OCONEE COUNTY AIRPORT , SC, United States (KCEU) 34-40N 082-53W 268M
Jul 03, 2022 - 10:54 AM EDT / 2022.07.03 1454 UTC
Wind: Calm:0
Visibility: 10 mile(s):0
Sky conditions: clear
Temperature: 84.0 F (28.9 C)
Dew Point: 72.0 F (22.2 C)
Relative Humidity: 67%
Pressure (altimeter): 30.1 in. Hg (1019 hPa)
Pressure tendency: 0.02 inches (0.7 hPa) higher than three hours ago
ob: KCEU 031454Z AUTO 00000KT 10SM CLR 29/22 A3010 RMK AO2 SLP181 T02890222 51007
cycle: 15

Station Type Date Time Source
KCEU TAF UTC NOAA

Error!

Example: see airport list